Time;durP1;ratioP1;P1;durP2;ratioP2;P2;SDS_P1;SDS_P2;PMS_P1;PMS_P2;Temp;Humidity;BMP_temperature;BMP_pressure;BME280_temperature;BME280_humidity;BME280_pressure;Samples;Min_cycle;Max_cycle;Signal;HPM_P1;HPM_P2
2022/04/15 00:02:19;;;;;;;8.70;3.90;;;;;;;11.77;88.90;100383.91;12192802;19;20011;-79
2022/04/15 00:06:24;;;;;;;8.20;4.47;;;;;;;11.63;90.77;100375.06;12206249;19;20388;-79
2022/04/15 00:10:28;;;;;;;8.52;3.78;;;;;;;11.55;90.12;100382.88;12205570;19;20479;-79
2022/04/15 00:14:29;;;;;;;6.05;3.92;;;;;;;11.47;90.46;100377.72;12175735;19;20015;-79
2022/04/15 00:18:32;;;;;;;9.02;4.03;;;;;;;11.38;90.69;100386.38;12202501;19;20272;-79
2022/04/15 00:22:34;;;;;;;7.03;4.30;;;;;;;11.33;90.93;100380.75;12204747;19;20010;-79
2022/04/15 00:26:36;;;;;;;8.38;4.28;;;;;;;11.25;92.27;100383.88;12177663;19;20543;-79
2022/04/15 00:30:37;;;;;;;7.78;4.28;;;;;;;11.20;92.09;100386.50;12202060;19;20070;-79
2022/04/15 00:34:39;;;;;;;7.75;4.43;;;;;;;11.16;93.14;100382.56;12205157;19;20527;-79
2022/04/15 00:38:41;;;;;;;12.25;5.20;;;;;;;11.11;92.72;100379.66;12178551;19;20111;-79
2022/04/15 00:42:43;;;;;;;7.57;5.28;;;;;;;11.07;93.08;100384.00;12202947;19;20127;-79
2022/04/15 00:46:44;;;;;;;9.23;6.00;;;;;;;11.03;93.27;100391.03;12196387;19;20026;-79
2022/04/15 00:50:46;;;;;;;9.52;5.10;;;;;;;10.98;93.53;100388.19;12182412;19;20036;-79
2022/04/15 00:54:51;;;;;;;11.30;7.07;;;;;;;10.93;93.84;100389.72;12201763;19;20027;-79
2022/04/15 00:58:53;;;;;;;11.25;6.05;;;;;;;10.90;94.04;100395.72;12203937;19;20376;-79
2022/04/15 01:03:00;;;;;;;13.73;6.85;;;;;;;10.87;94.29;100389.84;12181268;19;20023;-79
2022/04/15 01:07:04;;;;;;;12.05;6.60;;;;;;;10.83;94.38;100380.38;12200621;19;20015;-79
2022/04/15 01:11:07;;;;;;;10.98;6.80;;;;;;;10.79;94.56;100385.50;12181615;19;20010;-79
2022/04/15 01:15:13;;;;;;;11.13;6.88;;;;;;;10.76;94.84;100399.75;12196996;19;20019;-79
2022/04/15 01:19:14;;;;;;;17.95;7.78;;;;;;;10.71;95.33;100389.47;12195441;19;20046;-79
2022/04/15 01:23:16;;;;;;;11.32;7.07;;;;;;;10.64;95.62;100385.94;12182203;19;20023;-79
2022/04/15 01:27:25;;;;;;;14.32;8.00;;;;;;;10.60;95.99;100386.69;12195664;19;20027;-80
2022/04/15 01:31:31;;;;;;;15.30;8.13;;;;;;;10.56;96.07;100391.81;12202965;19;20105;-79
2022/04/15 01:35:33;;;;;;;16.25;8.35;;;;;;;10.53;96.75;100392.28;12180930;19;20396;-79
2022/04/15 01:39:38;;;;;;;15.10;8.50;;;;;;;10.48;97.04;100398.50;12200573;19;20010;-79
2022/04/15 01:43:39;;;;;;;16.02;8.52;;;;;;;10.45;97.03;100398.97;12199137;19;20074;-80
2022/04/15 01:47:41;;;;;;;19.95;9.68;;;;;;;10.42;97.31;100396.69;12172864;19;20559;-79
2022/04/15 01:51:43;;;;;;;19.15;10.95;;;;;;;10.39;97.53;100394.41;12197003;19;20018;-80
2022/04/15 01:55:45;;;;;;;21.83;12.27;;;;;;;10.37;97.71;100396.53;12195377;19;20017;-79
2022/04/15 01:59:46;;;;;;;22.95;13.20;;;;;;;10.36;97.85;100399.53;12175452;19;20033;-80
2022/04/15 02:03:50;;;;;;;24.63;13.23;;;;;;;10.34;98.07;100408.03;12196435;19;20011;-80
2022/04/15 02:07:52;;;;;;;23.02;12.73;;;;;;;10.30;98.54;100406.00;12191801;19;20015;-79
2022/04/15 02:11:54;;;;;;;23.45;13.85;;;;;;;10.26;98.62;100413.81;12193354;19;20215;-79
2022/04/15 02:15:55;;;;;;;22.35;13.10;;;;;;;10.23;98.78;100420.66;12252915;19;20007;-79
2022/04/15 02:19:57;;;;;;;22.70;13.75;;;;;;;10.19;98.91;100424.94;12239273;19;20011;-79
2022/04/15 02:23:59;;;;;;;24.58;14.73;;;;;;;10.16;99.28;100421.81;12246849;19;20013;-79
2022/04/15 02:28:01;;;;;;;26.07;14.70;;;;;;;10.12;99.72;100428.88;12242781;19;20006;-79
2022/04/15 02:32:03;;;;;;;25.10;14.05;;;;;;;10.10;99.62;100428.25;12241929;19;20010;-79
2022/04/15 02:36:05;;;;;;;26.73;14.30;;;;;;;10.08;99.79;100428.47;12255459;19;20014;-79
2022/04/15 02:40:07;;;;;;;26.45;15.05;;;;;;;10.06;99.90;100433.38;12255683;19;20003;-78
2022/04/15 02:44:09;;;;;;;28.35;15.63;;;;;;;10.02;100.00;100424.75;12234723;19;20002;-79
2022/04/15 02:48:12;;;;;;;26.75;15.40;;;;;;;9.99;100.00;100433.47;12243289;19;20011;-79
2022/04/15 02:52:14;;;;;;;26.02;15.85;;;;;;;9.96;100.00;100433.91;12206643;19;20019;-79
2022/04/15 02:56:15;;;;;;;30.65;17.10;;;;;;;9.93;100.00;100439.88;12181169;19;20076;-80
2022/04/15 03:00:18;;;;;;;27.85;17.67;;;;;;;9.89;100.00;100429.56;12204336;19;20033;-80
2022/04/15 03:04:20;;;;;;;25.77;13.65;;;;;;;9.82;100.00;100433.25;12200039;19;20431;-80
2022/04/15 03:08:21;;;;;;;34.03;18.77;;;;;;;9.80;100.00;100434.53;12176564;19;20022;-79
2022/04/15 03:12:23;;;;;;;35.08;18.98;;;;;;;9.74;100.00;100436.31;12198579;19;20014;-80
2022/04/15 03:16:25;;;;;;;34.17;19.05;;;;;;;9.69;100.00;100427.88;12196271;19;20019;-79
2022/04/15 03:20:28;;;;;;;33.90;18.05;;;;;;;9.65;100.00;100434.91;12174885;19;20006;-80
2022/04/15 03:24:29;;;;;;;;;;;;;;;9.62;100.00;100426.28;12203002;19;20011;-79
2022/04/15 03:28:31;;;;;;;36.35;19.60;;;;;;;9.58;100.00;100426.75;12194659;19;19939;-79
2022/04/15 03:32:33;;;;;;;36.55;19.58;;;;;;;9.55;100.00;100429.97;12180290;19;20011;-78
2022/04/15 03:36:34;;;;;;;40.97;21.48;;;;;;;9.53;100.00;100440.34;12191229;19;20463;-79
2022/04/15 03:40:36;;;;;;;43.30;21.45;;;;;;;9.50;100.00;100435.28;12193045;19;20472;-79
2022/04/15 03:44:38;;;;;;;39.20;24.17;;;;;;;9.49;100.00;100441.03;12177266;19;20015;-79
2022/04/15 03:48:39;;;;;;;39.75;22.83;;;;;;;9.46;100.00;100439.56;12196364;19;20101;-79
2022/04/15 03:52:45;;;;;;;41.10;22.92;;;;;;;9.41;100.00;100444.91;12210937;19;20089;-79
2022/04/15 03:56:47;;;;;;;46.05;23.70;;;;;;;9.38;100.00;100450.03;12181236;19;20044;-79
2022/04/15 04:00:49;;;;;;;42.30;23.15;;;;;;;9.34;100.00;100447.72;12204138;19;20014;-79
2022/04/15 04:04:51;;;;;;;42.40;22.08;;;;;;;9.29;100.00;100444.81;12203885;19;20002;-79
2022/04/15 04:08:52;;;;;;;41.55;22.67;;;;;;;9.26;100.00;100442.50;12181414;19;20074;-77
2022/04/15 04:12:54;;;;;;;42.53;22.23;;;;;;;9.26;100.00;100441.69;12201052;19;20014;-78
2022/04/15 04:16:56;;;;;;;43.63;22.00;;;;;;;9.24;100.00;100452.06;12193065;19;20358;-78
2022/04/15 04:20:58;;;;;;;42.45;22.17;;;;;;;9.23;100.00;100464.13;12204660;19;20779;-78
2022/04/15 04:24:59;;;;;;;41.47;22.35;;;;;;;9.21;100.00;100460.75;12199769;19;20086;-78
2022/04/15 04:29:01;;;;;;;41.03;22.20;;;;;;;9.18;100.00;100458.44;12179362;19;20078;-77
2022/04/15 04:33:03;;;;;;;41.55;21.80;;;;;;;9.17;100.00;100460.38;12207135;19;20014;-77
2022/04/15 04:37:05;;;;;;;44.83;23.57;;;;;;;9.16;100.00;100472.44;12203778;19;19999;-77
2022/04/15 04:41:06;;;;;;;45.88;23.08;;;;;;;9.16;100.00;100474.31;12186861;19;20259;-78
2022/04/15 04:45:10;;;;;;;46.15;23.73;;;;;;;9.15;100.00;100481.75;12201153;19;20482;-77
2022/04/15 04:49:12;;;;;;;52.05;25.30;;;;;;;9.15;100.00;100489.16;12204671;19;20089;-77
2022/04/15 04:53:13;;;;;;;43.67;23.30;;;;;;;9.18;100.00;100499.69;12174856;19;20448;-78
2022/04/15 04:57:16;;;;;;;;;;;;;;;9.20;100.00;100505.81;12200650;19;20006;-77
2022/04/15 05:01:18;;;;;;;42.05;23.05;;;;;;;9.24;100.00;100501.56;12192256;19;19979;-77
2022/04/15 05:05:19;;;;;;;44.55;24.08;;;;;;;9.28;100.00;100508.28;12182280;19;20322;-77
2022/04/15 05:09:21;;;;;;;45.05;23.10;;;;;;;9.38;100.00;100503.13;12198062;19;20022;-77
2022/04/15 05:13:23;;;;;;;40.22;22.95;;;;;;;9.51;100.00;100507.66;12203788;19;20006;-78
2022/04/15 05:17:24;;;;;;;44.30;24.27;;;;;;;9.64;100.00;100506.69;12177034;19;20017;-77
2022/04/15 05:21:26;;;;;;;41.90;22.70;;;;;;;9.73;100.00;100508.94;12208213;19;20325;-77
2022/04/15 05:25:28;;;;;;;43.28;23.65;;;;;;;9.80;100.00;100517.97;12196898;19;20111;-77
2022/04/15 05:29:30;;;;;;;39.88;23.50;;;;;;;9.89;100.00;100517.66;12177193;19;20027;-77
2022/04/15 05:33:31;;;;;;;38.97;22.20;;;;;;;9.93;100.00;100539.00;12200793;19;20479;-78
2022/04/15 05:37:33;;;;;;;37.67;21.90;;;;;;;9.96;100.00;100533.03;12197644;19;20568;-77
2022/04/15 05:41:35;;;;;;;37.20;20.75;;;;;;;10.01;100.00;100530.44;12178705;19;20019;-78
2022/04/15 05:45:36;;;;;;;35.83;21.48;;;;;;;10.06;100.00;100542.69;12201134;19;20090;-78
2022/04/15 05:49:38;;;;;;;38.30;21.20;;;;;;;10.09;100.00;100540.31;12202174;19;20023;-78
2022/04/15 05:53:39;;;;;;;37.03;21.42;;;;;;;10.14;100.00;100546.00;12172452;19;20361;-78
2022/04/15 05:57:41;;;;;;;39.97;21.70;;;;;;;10.22;100.00;100547.56;12192497;19;20010;-77
2022/04/15 06:01:43;;;;;;;39.42;21.08;;;;;;;10.30;100.00;100547.31;12195383;19;20033;-78
2022/04/15 06:05:45;;;;;;;37.97;21.30;;;;;;;10.41;100.00;100556.69;12173916;19;20014;-78
2022/04/15 06:09:46;;;;;;;37.08;22.08;;;;;;;10.49;100.00;100554.47;12193359;19;20002;-78
2022/04/15 06:13:49;;;;;;;35.35;20.48;;;;;;;10.58;100.00;100554.16;12199453;19;20098;-78
2022/04/15 06:17:51;;;;;;;;;;;;;;;10.68;100.00;100560.00;12171976;19;20441;-78
2022/04/15 06:21:53;;;;;;;34.67;20.77;;;;;;;10.80;100.00;100566.41;12201866;19;19915;-78
2022/04/15 06:25:54;;;;;;;35.45;19.73;;;;;;;10.88;100.00;100563.28;12193159;19;20019;-78
2022/04/15 06:29:56;;;;;;;33.70;19.27;;;;;;;10.97;100.00;100568.47;12177687;19;20014;-78
2022/04/15 06:33:58;;;;;;;35.17;18.90;;;;;;;11.07;100.00;100575.13;12186366;19;20026;-78
2022/04/15 06:37:59;;;;;;;33.58;19.00;;;;;;;11.21;100.00;100570.25;12172871;19;20041;-78
2022/04/15 06:42:02;;;;;;;25.90;15.25;;;;;;;11.31;100.00;100575.19;12202437;19;20007;-78
2022/04/15 06:46:05;;;;;;;23.58;13.02;;;;;;;11.46;100.00;100572.00;12189137;19;20010;-78
2022/04/15 06:50:07;;;;;;;18.05;11.23;;;;;;;11.57;99.28;100580.31;12171397;19;20007;-77
2022/04/15 06:54:09;;;;;;;17.83;10.52;;;;;;;11.85;97.15;100585.16;12188778;19;20010;-77
2022/04/15 06:58:10;;;;;;;17.10;10.13;;;;;;;12.12;94.90;100595.72;12197149;19;20024;-77
2022/04/15 07:02:12;;;;;;;17.63;9.07;;;;;;;12.39;93.30;100596.03;12172844;19;20070;-77
2022/04/15 07:06:14;;;;;;;16.50;9.82;;;;;;;12.54;89.46;100609.38;12189005;19;20518;-77
2022/04/15 07:10:16;;;;;;;16.58;10.60;;;;;;;12.76;88.96;100602.09;12196144;19;20007;-78
2022/04/15 07:14:18;;;;;;;16.92;10.63;;;;;;;12.78;86.30;100599.09;12170790;19;20071;-77
2022/04/15 07:18:19;;;;;;;16.27;9.63;;;;;;;13.00;86.88;100599.25;12196319;19;20018;-77
2022/04/15 07:22:21;;;;;;;16.05;10.20;;;;;;;13.21;84.94;100597.72;12198918;19;20335;-77
2022/04/15 07:26:23;;;;;;;15.77;9.53;;;;;;;13.44;84.64;100603.19;12172146;19;20019;-77
2022/04/15 07:30:25;;;;;;;13.73;9.02;;;;;;;13.75;84.01;100605.63;12202071;19;20066;-77
2022/04/15 07:34:27;;;;;;;16.05;9.18;;;;;;;13.94;81.52;100604.25;12174790;19;20658;-77
2022/04/15 07:38:29;;;;;;;14.35;9.15;;;;;;;14.18;80.68;100607.69;12185788;19;20014;-78
2022/04/15 07:42:31;;;;;;;13.45;8.80;;;;;;;14.46;79.21;100612.25;12200822;19;20035;-78
2022/04/15 07:46:33;;;;;;;19.27;8.48;;;;;;;14.50;77.95;100615.34;12200666;19;20041;-77
2022/04/15 07:50:35;;;;;;;14.55;8.75;;;;;;;14.70;77.52;100612.88;12179254;19;20640;-77
2022/04/15 07:54:36;;;;;;;15.25;8.25;;;;;;;14.89;76.04;100607.84;12200718;19;20010;-78
2022/04/15 07:58:38;;;;;;;12.18;7.47;;;;;;;15.01;72.66;100616.84;12210270;19;20358;-78
2022/04/15 08:02:41;;;;;;;11.52;7.07;;;;;;;14.91;70.85;100613.97;12174470;19;20416;-78
2022/04/15 08:06:44;;;;;;;14.98;8.68;;;;;;;15.19;71.26;100612.91;12202983;19;20079;-77
2022/04/15 08:10:53;;;;;;;11.02;6.93;;;;;;;15.28;69.24;100622.44;12198692;19;20010;-78
2022/04/15 08:14:55;;;;;;;11.68;7.28;;;;;;;15.56;70.18;100617.72;12183462;19;20011;-78
2022/04/15 08:18:57;;;;;;;15.05;6.72;;;;;;;15.79;67.98;100607.38;12208296;19;20014;-78
2022/04/15 08:22:59;;;;;;;11.38;6.78;;;;;;;16.08;68.51;100608.72;12182552;19;20530;-78
2022/04/15 08:27:01;;;;;;;10.95;6.22;;;;;;;16.16;66.39;100610.19;12200837;19;20058;-78
2022/04/15 08:31:03;;;;;;;11.63;6.00;;;;;;;16.26;65.01;100614.97;12209567;19;20475;-78
2022/04/15 08:35:07;;;;;;;8.33;5.07;;;;;;;16.37;64.29;100628.69;12182853;19;20527;-78
2022/04/15 08:39:09;;;;;;;10.63;6.18;;;;;;;16.52;63.15;100635.44;12205611;19;20017;-78
2022/04/15 08:43:11;;;;;;;15.93;6.45;;;;;;;16.49;61.98;100636.00;12205697;19;20083;-77
2022/04/15 08:47:13;;;;;;;13.18;7.10;;;;;;;16.73;62.59;100637.22;12182743;19;20014;-78
2022/04/15 08:51:15;;;;;;;11.23;6.03;;;;;;;16.84;60.41;100636.22;12204045;19;20763;-80
2022/04/15 08:55:17;;;;;;;8.48;5.30;;;;;;;16.90;57.57;100636.25;12201680;19;20006;-80
2022/04/15 08:59:19;;;;;;;10.50;6.05;;;;;;;16.84;57.06;100641.78;12186904;19;20019;-78
2022/04/15 09:03:22;;;;;;;12.25;6.93;;;;;;;16.96;58.25;100638.75;12204974;19;20010;-79
2022/04/15 09:07:34;;;;;;;10.30;7.80;;;;;;;17.14;58.19;100636.59;12197890;19;20023;-78
2022/04/15 09:11:42;;;;;;;10.30;7.13;;;;;;;17.23;58.85;100638.56;12190651;19;20086;-80
2022/04/15 09:15:43;;;;;;;10.35;7.43;;;;;;;17.38;57.47;100637.78;12191017;19;20015;-80
2022/04/15 09:19:46;;;;;;;11.52;7.50;;;;;;;17.37;57.75;100635.25;12209631;19;20017;-79
2022/04/15 09:23:49;;;;;;;11.35;6.72;;;;;;;16.97;58.18;100643.22;12182947;19;20022;-79
2022/04/15 09:27:55;;;;;;;12.38;8.07;;;;;;;17.11;58.82;100629.63;12205392;19;20023;-80
2022/04/15 09:31:57;;;;;;;13.82;7.10;;;;;;;17.36;56.59;100633.59;12197191;19;20493;-80
2022/04/15 09:35:58;;;;;;;10.00;6.20;;;;;;;17.57;56.23;100634.47;12205111;19;20368;-78
2022/04/15 09:40:05;;;;;;;9.27;5.10;;;;;;;17.73;54.74;100631.44;12201286;19;20003;-80
2022/04/15 09:44:11;;;;;;;10.38;5.82;;;;;;;17.91;53.83;100634.81;12177888;19;20476;-80
2022/04/15 09:48:13;;;;;;;6.15;3.42;;;;;;;18.08;52.18;100635.34;12199438;19;20006;-80
2022/04/15 09:52:24;;;;;;;6.18;3.35;;;;;;;18.32;50.85;100631.97;12205396;19;20014;-80
2022/04/15 09:56:30;;;;;;;4.55;2.75;;;;;;;18.75;47.92;100632.47;12177245;19;20070;-79
2022/04/15 10:00:32;;;;;;;5.40;3.47;;;;;;;18.53;48.97;100628.06;12201116;19;20433;-80
2022/04/15 10:04:35;;;;;;;7.25;3.10;;;;;;;18.60;48.05;100623.00;12200402;19;20011;-79
2022/04/15 10:08:39;;;;;;;;;;;;;;;18.67;47.81;100623.50;12184582;19;20070;-78
2022/04/15 10:12:49;;;;;;;5.72;3.22;;;;;;;18.44;48.71;100624.13;12197479;19;19935;-81
2022/04/15 10:16:52;;;;;;;7.15;4.50;;;;;;;18.11;48.44;100623.63;12194911;19;20011;-80
2022/04/15 10:20:54;;;;;;;7.22;3.45;;;;;;;18.63;48.79;100621.59;12181259;19;20033;-80
2022/04/15 10:24:56;;;;;;;4.90;3.20;;;;;;;18.87;46.63;100613.44;12206204;19;20033;-80
2022/04/15 10:29:01;;;;;;;5.23;3.20;;;;;;;18.41;47.93;100617.19;12191319;19;20358;-80
2022/04/15 10:33:03;;;;;;;6.53;3.38;;;;;;;18.95;47.83;100607.25;12202851;19;20070;-80
2022/04/15 10:37:05;;;;;;;6.13;2.70;;;;;;;19.41;47.20;100595.81;12202791;19;20009;-81
2022/04/15 10:41:14;;;;;;;3.13;1.80;;;;;;;19.46;44.76;100597.75;12180220;19;20120;-80
2022/04/15 10:45:29;;;;;;;2.50;1.40;;;;;;;19.10;43.63;100595.19;12196506;19;20015;-81
2022/04/15 10:49:33;;;;;;;2.20;1.30;;;;;;;18.87;45.24;100596.69;12208458;19;20028;-78
2022/04/15 10:53:35;;;;;;;3.17;1.30;;;;;;;18.93;44.75;100589.94;12191445;19;20496;-81
2022/04/15 10:57:41;;;;;;;4.50;1.92;;;;;;;19.52;42.97;100600.22;12212713;19;20064;-78
2022/04/15 11:01:56;;;;;;;4.20;1.17;;;;;;;19.26;43.14;100601.50;12212318;19;20017;-82
2022/04/15 11:06:00;;;;;;;3.20;0.93;;;;;;;19.61;43.02;100583.66;12190095;19;20017;-82
2022/04/15 11:10:18;;;;;;;1.27;0.68;;;;;;;20.26;42.13;100589.81;12205747;19;20003;-82
2022/04/15 11:14:34;;;;;;;1.27;0.90;;;;;;;20.64;39.69;100590.00;12188170;19;20046;-82
2022/04/15 11:18:59;;;;;;;2.88;0.93;;;;;;;20.78;40.12;100572.47;12216176;19;20015;-79
2022/04/15 11:23:01;;;;;;;1.95;0.95;;;;;;;21.07;39.80;100569.56;12196369;19;20002;-80
2022/04/15 11:27:04;;;;;;;;;;;;;;;20.91;37.98;100580.97;12210616;19;20014;-82
2022/04/15 11:31:25;;;;;;;1.07;0.50;;;;;;;20.88;37.30;100580.72;12220512;19;19914;-81
2022/04/15 11:35:31;;;;;;;2.55;0.90;;;;;;;20.59;38.13;100578.84;12184176;19;20010;-81
2022/04/15 11:39:37;;;;;;;2.70;1.00;;;;;;;20.48;38.57;100580.88;12217915;19;20496;-82
2022/04/15 11:43:39;;;;;;;2.50;0.93;;;;;;;20.87;38.01;100565.88;12214470;19;20022;-81
2022/04/15 11:47:40;;;;;;;1.67;0.97;;;;;;;21.45;37.83;100564.81;12193074;19;20018;-81
2022/04/15 11:51:47;;;;;;;2.60;0.70;;;;;;;21.53;37.30;100568.88;12212714;19;20078;-81
2022/04/15 11:55:55;;;;;;;3.25;1.10;;;;;;;21.14;36.63;100558.78;12203769;19;20419;-85
2022/04/15 11:59:58;;;;;;;1.80;0.93;;;;;;;21.47;37.38;100561.69;12161895;19;20003;-81
2022/04/15 12:04:01;;;;;;;4.53;1.30;;;;;;;22.17;35.93;100566.44;12216855;19;21966;-85
2022/04/15 12:08:05;;;;;;;3.03;1.20;;;;;;;23.14;33.97;100559.66;12213845;19;20479;-82
2022/04/15 12:12:07;;;;;;;4.20;0.90;;;;;;;23.56;33.99;100553.91;12192816;19;20565;-84
2022/04/15 12:16:10;;;;;;;2.55;1.30;;;;;;;24.05;32.49;100546.47;12214668;19;20011;-80
2022/04/15 12:20:14;;;;;;;4.45;1.88;;;;;;;24.48;33.35;100545.88;12219166;19;20011;-84
2022/04/15 12:24:22;;;;;;;2.90;1.30;;;;;;;24.89;30.40;100550.31;12196438;19;20050;-84
2022/04/15 12:33:07;;;;;;;7.22;1.15;;;;;;;25.33;30.46;100554.06;12190315;19;20014;-83
2022/04/15 12:37:33;;;;;;;1.92;1.00;;;;;;;25.19;30.78;100545.75;12205730;19;21604;-85
2022/04/15 12:41:49;;;;;;;3.78;0.95;;;;;;;24.78;30.96;100555.44;12190582;19;20003;-81
2022/04/15 12:45:54;;;;;;;6.80;1.42;;;;;;;23.36;32.67;100555.22;12211656;19;20478;-81
2022/04/15 12:50:15;;;;;;;2.95;1.20;;;;;;;23.53;33.32;100544.13;12206684;19;20070;-84
2022/04/15 12:54:18;;;;;;;2.33;0.80;;;;;;;24.49;31.71;100536.28;12184702;19;20014;-80
2022/04/15 12:58:25;;;;;;;2.95;0.80;;;;;;;24.92;31.08;100536.38;12209884;19;20010;-86
2022/04/15 13:02:29;;;;;;;1.65;0.80;;;;;;;25.53;29.63;100521.53;12186373;19;20479;-83
2022/04/15 13:06:31;;;;;;;2.80;1.08;;;;;;;25.59;29.30;100531.50;12203603;19;20365;-80
2022/04/15 13:10:33;;;;;;;6.78;1.40;;;;;;;26.00;29.12;100516.81;12212716;19;20014;-83
2022/04/15 13:14:55;;;;;;;1.50;0.75;;;;;;;26.06;29.02;100523.94;12179845;19;20034;-84
2022/04/15 13:18:56;;;;;;;2.95;1.02;;;;;;;25.17;30.07;100517.06;12210055;19;20007;-83
2022/04/15 13:22:58;;;;;;;1.77;0.80;;;;;;;25.82;29.16;100529.31;12209256;19;20487;-82
2022/04/15 13:27:00;;;;;;;;;;;;;;;25.79;28.67;100527.97;12179175;19;20006;-80
2022/04/15 13:31:02;;;;;;;2.00;1.00;;;;;;;25.58;29.14;100510.06;12208457;19;19911;-81
2022/04/15 13:35:04;;;;;;;1.30;0.80;;;;;;;26.07;28.00;100510.66;12206951;19;20456;-83
2022/04/15 13:39:05;;;;;;;2.08;1.05;;;;;;;26.33;27.23;100510.56;12190355;19;20018;-79
2022/04/15 13:43:07;;;;;;;2.95;1.00;;;;;;;27.23;25.56;100501.72;12204182;19;20045;-81
2022/04/15 13:47:09;;;;;;;2.67;1.00;;;;;;;27.24;26.25;100505.38;12205938;19;20007;-81
2022/04/15 13:51:11;;;;;;;2.33;1.25;;;;;;;28.10;25.12;100505.72;12177658;19;20463;-81
2022/04/15 13:59:34;;;;;;;2.78;0.82;;;;;;;25.29;28.12;100507.94;12179576;19;19911;-80
2022/04/15 14:03:36;;;;;;;3.13;0.80;;;;;;;23.96;28.98;100509.00;12199838;19;20055;-79
2022/04/15 14:07:37;;;;;;;3.13;0.90;;;;;;;23.03;30.37;100499.22;12198558;19;20006;-81
2022/04/15 14:11:43;;;;;;;2.13;0.63;;;;;;;22.66;29.64;100503.91;12186928;19;20007;-78
2022/04/15 14:15:45;;;;;;;5.75;1.15;;;;;;;21.95;32.01;100494.97;12207904;19;20011;-80
2022/04/15 14:19:46;;;;;;;1.83;0.80;;;;;;;21.87;31.18;100500.44;12211492;19;20020;-78
2022/04/15 14:23:48;;;;;;;1.23;0.90;;;;;;;21.67;32.19;100499.66;12187277;19;20017;-81
2022/04/15 14:27:49;;;;;;;3.63;0.90;;;;;;;21.84;32.20;100496.28;12201019;19;20010;-82
2022/04/15 14:31:51;;;;;;;2.38;0.80;;;;;;;22.24;32.13;100502.28;12216227;19;20007;-78
2022/04/15 14:35:53;;;;;;;4.80;1.20;;;;;;;22.73;30.97;100507.16;12186745;19;20027;-78
2022/04/15 14:39:55;;;;;;;2.43;1.30;;;;;;;22.50;31.68;100509.03;12200305;19;20037;-78
2022/04/15 14:43:56;;;;;;;3.80;1.17;;;;;;;22.39;32.22;100509.56;12199793;19;20007;-81
2022/04/15 14:47:59;;;;;;;1.10;0.90;;;;;;;22.04;32.23;100507.13;12181494;19;20620;-81
2022/04/15 14:52:01;;;;;;;;;;;;;;;21.82;32.80;100499.38;12201693;19;20010;-80
2022/04/15 14:56:04;;;;;;;5.05;1.35;;;;;;;21.91;32.79;100498.69;12191250;19;19979;-81
2022/04/15 15:00:07;;;;;;;3.92;1.40;;;;;;;22.09;33.13;100494.97;12182136;19;20021;-78
2022/04/15 15:04:09;;;;;;;2.25;1.23;;;;;;;21.85;33.73;100498.75;12205890;19;20018;-81
2022/04/15 15:08:11;;;;;;;2.60;1.10;;;;;;;21.93;32.89;100494.44;12196110;19;20011;-81
2022/04/15 15:12:13;;;;;;;1.48;0.90;;;;;;;21.53;34.46;100504.38;12179245;19;20096;-81
2022/04/15 15:16:14;;;;;;;2.53;1.40;;;;;;;21.40;34.43;100492.00;12203742;19;20015;-81
2022/04/15 15:20:18;;;;;;;3.67;1.33;;;;;;;21.48;34.31;100490.47;12195603;19;20010;-81
2022/04/15 15:33:01;;;;;;;1.85;1.15;;;;;;;21.47;34.04;100486.00;12184095;19;20006;-79
2022/04/15 15:37:03;;;;;;;3.43;1.13;;;;;;;21.16;34.72;100492.91;12195257;19;20023;-80
2022/04/15 15:41:05;;;;;;;3.10;1.55;;;;;;;21.01;34.66;100489.50;12206093;19;20019;-80
2022/04/15 15:45:07;;;;;;;3.70;1.67;;;;;;;20.87;35.63;100484.66;12177011;19;20432;-80
2022/04/15 15:49:09;;;;;;;3.20;1.60;;;;;;;21.01;35.88;100492.31;12206071;19;20006;-79
2022/04/15 15:53:11;;;;;;;6.10;4.20;;;;;;;20.40;36.73;100491.97;12207168;19;20010;-81
2022/04/15 15:57:13;;;;;;;6.45;4.28;;;;;;;19.84;39.37;100491.75;12183572;19;20010;-79
2022/04/15 16:01:19;;;;;;;4.35;2.17;;;;;;;19.75;40.70;100486.84;12213825;19;20038;-80
2022/04/15 16:05:21;;;;;;;6.38;4.65;;;;;;;19.94;41.00;100495.31;12182921;19;20360;-79
2022/04/15 16:09:23;;;;;;;5.90;2.40;;;;;;;20.26;40.79;100499.44;12215216;19;20014;-80
2022/04/15 16:13:24;;;;;;;5.87;2.67;;;;;;;20.36;40.76;100504.06;12216082;19;20018;-80
2022/04/15 16:17:28;;;;;;;;;;;;;;;20.45;40.55;100505.91;12188026;19;20356;-78
2022/04/15 16:21:32;;;;;;;3.63;2.15;;;;;;;20.91;40.40;100518.47;12216377;19;19926;-80
2022/04/15 16:25:34;;;;;;;2.83;2.13;;;;;;;21.38;39.39;100527.91;12207612;19;20011;-80
2022/04/15 16:29:36;;;;;;;8.53;2.70;;;;;;;21.44;38.80;100537.06;12187800;19;20022;-79
2022/04/15 16:33:37;;;;;;;6.07;3.03;;;;;;;20.07;40.43;100526.50;12214592;19;20015;-79
2022/04/15 16:37:39;;;;;;;3.93;2.40;;;;;;;19.49;42.28;100536.50;12206547;19;20250;-78
2022/04/15 16:41:41;;;;;;;10.93;3.13;;;;;;;19.46;42.24;100539.06;12190388;19;20082;-80
2022/04/15 16:45:43;;;;;;;4.05;2.55;;;;;;;19.18;42.81;100558.22;12198981;19;20718;-80
2022/04/15 16:49:45;;;;;;;8.95;3.40;;;;;;;18.97;42.86;100563.09;12199160;19;20074;-79
2022/04/15 16:53:46;;;;;;;7.00;2.63;;;;;;;18.57;43.46;100562.16;12186610;19;20015;-79
2022/04/15 17:02:08;;;;;;;5.57;2.67;;;;;;;17.74;45.79;100576.50;12209591;19;20677;-79
2022/04/15 17:06:11;;;;;;;5.23;2.90;;;;;;;17.06;46.82;100585.88;12189153;19;20007;-78
2022/04/15 17:10:13;;;;;;;8.18;2.55;;;;;;;17.07;46.38;100589.50;12203292;19;20263;-80
2022/04/15 17:14:15;;;;;;;3.05;2.35;;;;;;;16.60;47.65;100601.56;12212172;19;20070;-80
2022/04/15 17:18:17;;;;;;;3.50;2.37;;;;;;;16.61;47.36;100606.00;12186268;19;20076;-79
2022/04/15 17:22:19;;;;;;;4.50;2.30;;;;;;;16.58;46.83;100617.69;12211092;19;20014;-80
2022/04/15 17:26:20;;;;;;;4.15;1.90;;;;;;;16.74;46.16;100619.41;12189383;19;20031;-80
2022/04/15 17:30:22;;;;;;;3.20;1.80;;;;;;;16.57;46.05;100629.94;12207362;19;20010;-80
2022/04/15 17:34:24;;;;;;;3.45;1.70;;;;;;;16.21;46.71;100614.94;12216125;19;20018;-82
2022/04/15 17:38:27;;;;;;;3.08;1.80;;;;;;;15.89;46.84;100619.44;12182337;19;20089;-80
2022/04/15 17:42:29;;;;;;;5.35;1.90;;;;;;;16.04;46.93;100624.28;12208795;19;20040;-80
2022/04/15 17:46:34;;;;;;;5.87;2.13;;;;;;;16.44;45.92;100627.59;12205616;19;20037;-80
2022/04/15 17:50:36;;;;;;;4.57;1.45;;;;;;;16.34;45.78;100639.50;12186033;19;20014;-81
2022/04/15 17:54:38;;;;;;;3.53;1.60;;;;;;;15.94;46.54;100635.31;12198048;19;20086;-80
2022/04/15 17:58:40;;;;;;;3.40;2.03;;;;;;;15.67;47.02;100638.09;12205055;19;20038;-82
2022/04/15 18:02:43;;;;;;;4.60;2.05;;;;;;;15.16;47.74;100645.91;12180488;19;20018;-80
2022/04/15 18:06:49;;;;;;;3.50;1.38;;;;;;;14.69;48.80;100657.50;12204638;19;20029;-82
2022/04/15 18:10:52;;;;;;;2.85;2.10;;;;;;;14.29;50.31;100650.25;12207964;19;20014;-81
2022/04/15 18:14:54;;;;;;;3.20;1.90;;;;;;;13.92;50.92;100661.88;12196792;19;20041;-81
2022/04/15 18:18:56;;;;;;;2.75;1.85;;;;;;;13.71;51.40;100679.22;12209444;19;20387;-81
2022/04/15 18:22:58;;;;;;;3.42;1.60;;;;;;;13.40;52.46;100676.72;12211018;19;19998;-81
2022/04/15 18:27:00;;;;;;;2.53;1.77;;;;;;;13.21;52.61;100687.13;12182650;19;20046;-81
2022/04/15 18:31:03;;;;;;;4.72;2.17;;;;;;;12.95;54.16;100687.69;12215000;19;20003;-81
2022/04/15 18:35:05;;;;;;;;;;;;;;;12.78;54.03;100696.72;12209615;19;20018;-80
2022/04/15 18:39:07;;;;;;;2.42;1.85;;;;;;;12.59;54.67;100700.72;12189239;19;20328;-80
2022/04/15 18:43:10;;;;;;;3.17;1.93;;;;;;;12.45;54.65;100710.34;12211528;19;20011;-80
2022/04/15 18:47:12;;;;;;;;;;;;;;;12.23;57.12;100724.75;12213426;19;20271;-82
2022/04/15 18:55:34;;;;;;;2.97;1.67;;;;;;;11.99;57.53;100731.31;12209754;19;20023;-82